Huntington Beach, California
Current Conditions -  °F | °C
As of 2:53 AM on Friday 28 Nov 2014 (Local Time) from KSNA Reporting Station
Clear Clear  
Wind Chill: 57°   Ceiling: Unl
Heat Index: 57°   Visibility: 10mi
Dew Point: 38°   Wind: 0mph
Humidity: 49%   Direction: NA
Pressure: 29.98"   Gusts: NA
Location:  33.68°N, 118°W
Report Text: KSNA 281053Z AUTO 00000KT 10SM CLR 14/03 A2998 RMK AO2 SLP152 T01390033 TSNO
Loading
Personal Weather Stations






























Interactive Weather Map New forecast layout! Learn more

10-Day Weather Forecast

Advertisements
Track Severe Weather on mobile